Phillips, WI (54555)

2:37 AM CDT on August 30, 2015 (GMT -0500)
Downtown (BP station) | | Change Station
CLOSE
Current Station
Personal Weather Station
Location: Phillips, WI
Elevation: 1470 ft
Nearby Weather Stations

Elev 1470 ft 45.69 °N, 90.40 °W | Updated 59 seconds ago

Overcast
Overcast
57.8 °F
Feels Like 57.8 °F
N
0.0
Wind Variable Wind from WSW
Gusts 0.0 mph

Today
High -- | Low -- °F
--% Chance of Precip.
Yesterday
High -- | Low -- °F
Precip. -- in
6:20 AM 7:43 PM
Full, 100% visible
Pressure 30.05 in
Visibility 5.0 miles
Clouds Overcast 300 ft
Dew Point 56 °F
Humidity 94%
Rainfall 0.00 in
Snow Depth Not available.
UV 0 out of 12
Pollen 9.10 out of 12
Air Quality Not available.
Flu Activity Not available.
METAR KPBH 300715Z AUTO 22004KT 5SM BR OVC003 14/14 A3005 RMK AO2 T01400140
Pressure 30.05 in
Visibility 5.0 miles
Clouds Overcast 300 ft
Dew Point 56 °F
Humidity 94%
Rainfall 0.00 in
Snow Depth Not available.
UV 0 out of 12
Pollen 9.10 out of 12
Air Quality Not available.
Flu Activity Not available.
METAR KPBH 300715Z AUTO 22004KT 5SM BR OVC003 14/14 A3005 RMK AO2 T01400140

10-Day Weather Forecast

×

Almanac

Astronomy

Aug. 30, 2015 Rise Set
Actual Time
Civil Twilight
Nautical Twilight
Astronomical Twilight
Moon
Length of Visible Light
Length of Day
Tomorrow will be .
, % of the Moon is Illuminated

Today's Extremes

State Highs State Lows

Community

WunderPhotos

Upload Photos

1,850,904 photos uploaded!

WunderBlogs® & News

Nearby

Air Quality

  Air Quality AQ Index Pollutant
Not available.

Snow Depth

Station Depth Elevation

Earthquake Activity

City Distance Mag. Time & Date
Minimum magnitude displayed is 2.5.

Coastal Water Temperatures

Place Temperature

Stations

Nearby Weather Stations

Station Location Temp. Windchill Dew Point Humidity Wind Precip. Elev Updated Type